createdAt,value
2018-11-21T00:00:09.757Z,26.1
2018-11-21T00:00:59.687Z,26
2018-11-21T00:01:50.656Z,25.9
2018-11-21T00:02:39.311Z,25.9
2018-11-21T00:03:30.237Z,25.9
2018-11-21T00:04:20.672Z,25.9
2018-11-21T00:05:09.698Z,25.9
2018-11-21T00:06:00.021Z,25.9
2018-11-21T00:06:50.738Z,25.9
2018-11-21T00:25:07.690Z,29.6
2018-11-21T00:25:58.272Z,28.1
2018-11-21T00:26:48.739Z,27.3
2018-11-21T00:27:36.843Z,26.8
2018-11-21T00:28:26.539Z,26.4
2018-11-21T00:29:16.898Z,26.2
2018-11-21T00:30:08.292Z,26.1
2018-11-21T00:30:58.380Z,25.9
2018-11-21T00:31:48.004Z,25.9
2018-11-21T00:32:36.970Z,25.9
2018-11-21T00:33:27.029Z,25.9
2018-11-21T00:34:18.404Z,25.9
2018-11-21T00:35:09.611Z,25.9
2018-11-21T00:35:58.111Z,25.9
2018-11-21T00:36:49.014Z,26
2018-11-21T00:37:38.216Z,26
2018-11-21T00:38:28.953Z,26.4
2018-11-21T00:39:17.659Z,27.6
2018-11-21T00:40:09.068Z,29
2018-11-21T00:40:58.927Z,30.1
2018-11-21T00:41:48.736Z,30.8
2018-11-21T00:42:39.192Z,31.4
2018-11-21T00:43:28.941Z,31.9
2018-11-21T00:44:18.774Z,32.4
2018-11-21T00:45:08.344Z,32.8
2018-11-21T00:45:59.322Z,33.1
2018-11-21T00:46:48.329Z,33.5
2018-11-21T00:47:39.443Z,33.8
2018-11-21T00:48:29.543Z,34.1
2018-11-21T00:49:18.312Z,34.4
2018-11-21T00:50:09.613Z,34.6
2018-11-21T00:50:59.163Z,34.8
2018-11-21T00:51:49.186Z,34.9
2018-11-21T00:52:38.983Z,35.1
2018-11-21T00:53:29.138Z,34.4
2018-11-21T00:54:19.120Z,31.4
2018-11-21T00:55:09.332Z,29.3
2018-11-21T00:55:58.793Z,28.1
2018-11-21T00:56:49.795Z,27.3
2018-11-21T00:57:39.135Z,26.8
2018-11-21T00:58:30.385Z,26.5
2018-11-21T00:59:19.555Z,26.3
2018-11-21T01:00:09.803Z,26.1
2018-11-21T01:00:59.745Z,26
2018-11-21T01:01:50.297Z,25.9
2018-11-21T01:02:39.887Z,25.9
2018-11-21T01:03:29.327Z,26.6
2018-11-21T01:04:20.923Z,27
2018-11-21T01:05:10.667Z,27.2
2018-11-21T01:06:00.738Z,27.3
2018-11-21T01:06:49.739Z,27.3
2018-11-21T01:07:41.216Z,27.3
2018-11-21T01:08:31.022Z,27.3
2018-11-21T01:09:20.435Z,27.3
2018-11-21T01:10:10.552Z,27.3
2018-11-21T01:11:00.307Z,27.4
2018-11-21T01:11:51.541Z,27.3
2018-11-21T01:12:41.189Z,27.2
2018-11-21T01:13:31.370Z,28.3
2018-11-21T01:14:21.348Z,29.4
2018-11-21T01:15:12.294Z,30.3
2018-11-21T01:16:01.505Z,30.9
2018-11-21T01:16:51.170Z,31.4
2018-11-21T01:17:42.367Z,31.8
2018-11-21T01:18:32.214Z,32.3
2018-11-21T01:19:20.686Z,32.6
2018-11-21T01:20:12.156Z,33
2018-11-21T01:21:02.136Z,33.3
2018-11-21T01:21:50.767Z,33.6
2018-11-21T01:22:41.809Z,33.9
2018-11-21T01:23:32.889Z,34.1
2018-11-21T01:24:21.452Z,34.3
2018-11-21T01:25:11.939Z,34.6
2018-11-21T01:26:01.659Z,34.8
2018-11-21T01:26:52.514Z,34.9
2018-11-21T01:27:42.921Z,35.1
2018-11-21T01:28:31.328Z,35
2018-11-21T01:29:22.296Z,32.9
2018-11-21T01:30:10.981Z,30.2
2018-11-21T01:31:01.009Z,28.6
2018-11-21T01:31:52.828Z,27.6
2018-11-21T01:32:42.968Z,27
2018-11-21T01:33:32.966Z,26.6
2018-11-21T01:34:22.596Z,26.3
2018-11-21T01:35:11.723Z,26.1
2018-11-21T01:36:02.573Z,26
2018-11-21T01:36:52.438Z,25.9
2018-11-21T01:37:41.954Z,25.9
2018-11-21T01:38:32.145Z,25.9
2018-11-21T01:39:22.523Z,25.9
2018-11-21T01:40:12.801Z,25.9
2018-11-21T01:41:02.658Z,25.9
2018-11-21T01:41:52.820Z,25.9
2018-11-21T01:42:44.201Z,26
2018-11-21T01:43:32.823Z,26.4
2018-11-21T01:44:22.663Z,27.4
2018-11-21T01:45:12.340Z,28.9
2018-11-21T01:46:02.930Z,30
2018-11-21T01:46:53.462Z,30.8
2018-11-21T01:47:43.960Z,31.4
2018-11-21T01:48:33.664Z,31.9
2018-11-21T01:49:23.809Z,32.4
2018-11-21T01:50:14.412Z,32.8
2018-11-21T01:51:03.882Z,33.1
2018-11-21T01:51:53.954Z,33.4
2018-11-21T01:52:45.044Z,33.8
2018-11-21T01:53:35.514Z,34.1
2018-11-21T01:54:23.052Z,34.3
2018-11-21T01:55:14.509Z,34.5
2018-11-21T01:56:04.509Z,34.8
2018-11-21T01:56:55.148Z,34.9
2018-11-21T01:57:43.326Z,35.1
2018-11-21T01:58:33.559Z,34.6
2018-11-21T01:59:24.502Z,31.9
2018-11-21T02:00:14.086Z,29.5
2018-11-21T02:01:04.819Z,28.2
2018-11-21T02:01:54.909Z,27.4
2018-11-21T02:02:45.914Z,26.9
2018-11-21T02:03:35.569Z,26.5
2018-11-21T02:04:23.601Z,26.3
2018-11-21T02:05:14.331Z,26.1
2018-11-21T02:06:05.048Z,26
2018-11-21T02:06:54.588Z,25.9
2018-11-21T02:07:44.035Z,25.9
2018-11-21T02:08:35.021Z,25.9
2018-11-21T02:09:25.658Z,25.9
2018-11-21T02:10:14.563Z,25.9
2018-11-21T02:11:04.349Z,25.9
2018-11-21T02:11:54.690Z,26
2018-11-21T02:12:44.980Z,26
2018-11-21T02:13:35.785Z,26.5
2018-11-21T02:14:25.560Z,27.9
2018-11-21T02:15:15.383Z,29.3
2018-11-21T02:16:06.078Z,30.2
2018-11-21T02:16:56.782Z,30.9
2018-11-21T02:17:46.009Z,31.5
2018-11-21T02:18:35.293Z,32
2018-11-21T02:19:25.382Z,32.4
2018-11-21T02:20:15.080Z,32.8
2018-11-21T02:21:05.728Z,33.2
2018-11-21T02:21:56.497Z,33.5
2018-11-21T02:22:46.145Z,33.8
2018-11-21T02:23:37.032Z,34.1
2018-11-21T02:24:26.520Z,34.3
2018-11-21T02:25:16.865Z,34.6
2018-11-21T02:26:05.310Z,34.8
2018-11-21T02:26:56.060Z,34.9
2018-11-21T02:27:46.547Z,35.1
2018-11-21T02:28:35.347Z,33.9
2018-11-21T02:29:25.861Z,31.1
2018-11-21T02:30:15.612Z,29.1
2018-11-21T02:31:06.447Z,27.9
2018-11-21T02:31:56.847Z,27.2
2018-11-21T02:32:46.867Z,26.7
2018-11-21T02:33:37.517Z,26.4
2018-11-21T02:34:26.757Z,26.2
2018-11-21T02:35:16.795Z,26
2018-11-21T02:36:06.754Z,25.9
2018-11-21T02:36:56.775Z,25.9
2018-11-21T02:37:46.558Z,25.9
2018-11-21T02:38:38.122Z,25.9
2018-11-21T02:39:27.491Z,25.9
2018-11-21T02:40:17.597Z,25.9
2018-11-21T02:41:07.876Z,25.9
2018-11-21T02:41:57.732Z,25.9
2018-11-21T02:42:47.476Z,26.1
2018-11-21T02:43:37.928Z,26.8
2018-11-21T02:44:27.557Z,28.3
2018-11-21T02:45:17.429Z,29.6
2018-11-21T02:46:06.616Z,30.4
2018-11-21T02:46:57.837Z,31.1
2018-11-21T02:47:47.428Z,31.7
2018-11-21T02:48:37.669Z,32.1
2018-11-21T02:49:28.328Z,32.6
2018-11-21T02:50:18.023Z,32.9
2018-11-21T02:51:08.310Z,33.3
2018-11-21T02:51:57.930Z,33.6
2018-11-21T02:52:48.541Z,33.9
2018-11-21T02:53:38.629Z,34.1
2018-11-21T02:54:28.245Z,34.4
2018-11-21T02:55:17.813Z,34.6
2018-11-21T02:56:08.228Z,34.8
2018-11-21T02:56:58.795Z,34.9
2018-11-21T02:57:48.570Z,35
2018-11-21T02:58:38.119Z,33.3
2018-11-21T02:59:28.148Z,30.5
2018-11-21T03:00:17.861Z,28.8
2018-11-21T03:01:07.780Z,27.7
2018-11-21T03:01:58.085Z,27.1
2018-11-21T03:02:48.964Z,26.6
2018-11-21T03:03:39.057Z,26.3
2018-11-21T03:04:29.955Z,26.1
2018-11-21T03:05:19.165Z,26.1
2018-11-21T03:06:09.995Z,25.9
2018-11-21T03:06:58.018Z,25.9
2018-11-21T03:07:49.085Z,25.9
2018-11-21T03:08:39.157Z,25.9
2018-11-21T03:09:29.280Z,25.9
2018-11-21T03:10:19.142Z,25.9
2018-11-21T03:11:09.992Z,25.9
2018-11-21T03:11:59.588Z,26
2018-11-21T03:12:49.292Z,26.1
2018-11-21T03:13:39.432Z,26.8
2018-11-21T03:14:29.827Z,28.4
2018-11-21T03:15:19.849Z,29.6
2018-11-21T03:16:08.998Z,30.4
2018-11-21T03:17:00.464Z,31.1
2018-11-21T03:17:49.389Z,31.7
2018-11-21T03:18:39.477Z,32.1
2018-11-21T03:19:30.417Z,32.6
2018-11-21T03:20:20.434Z,32.9
2018-11-21T03:21:09.957Z,33.3
2018-11-21T03:22:00.337Z,33.6
2018-11-21T03:22:50.108Z,33.9
2018-11-21T03:23:40.404Z,34.1
2018-11-21T03:24:30.446Z,34.3
2018-11-21T03:25:19.377Z,34.5
2018-11-21T03:26:10.842Z,34.7
2018-11-21T03:26:59.969Z,34.9
2018-11-21T03:27:50.761Z,35.1
2018-11-21T03:28:40.141Z,33.6
2018-11-21T03:29:30.311Z,30.8
2018-11-21T03:30:21.161Z,28.9
2018-11-21T03:32:00.988Z,27.2
2018-11-21T03:32:51.021Z,26.8
2018-11-21T03:33:41.380Z,26.4
2018-11-21T03:34:30.271Z,26.2
2018-11-21T03:35:20.670Z,26.1
2018-11-21T03:36:10.750Z,26
2018-11-21T03:37:00.885Z,25.9
2018-11-21T03:37:51.986Z,25.9
2018-11-21T03:38:41.925Z,25.9
2018-11-21T03:39:30.640Z,26
2018-11-21T03:40:21.243Z,26
2018-11-21T03:41:12.058Z,26
2018-11-21T03:42:01.153Z,26.1
2018-11-21T03:42:51.151Z,26.1
2018-11-21T03:43:42.321Z,26.6
2018-11-21T03:44:31.371Z,28.1
2018-11-21T03:45:21.388Z,29.4
2018-11-21T03:46:10.840Z,30.3
2018-11-21T03:47:01.760Z,30.9
2018-11-21T03:47:52.390Z,31.6
2018-11-21T03:48:42.665Z,32.1
2018-11-21T03:49:32.490Z,32.4
2018-11-21T03:50:22.357Z,32.8
2018-11-21T03:51:11.925Z,33.2
2018-11-21T03:52:02.445Z,33.5
2018-11-21T03:52:52.202Z,33.8
2018-11-21T03:53:42.837Z,34
2018-11-21T03:54:31.492Z,34.3
2018-11-21T03:55:21.277Z,34.4
2018-11-21T03:56:11.389Z,34.6
2018-11-21T03:57:02.527Z,34.8
2018-11-21T03:57:52.328Z,35
2018-11-21T03:58:42.295Z,34.8
2018-11-21T03:59:31.452Z,32.4
2018-11-21T04:00:22.037Z,29.9
2018-11-21T04:01:12.231Z,28.4
2018-11-21T04:02:02.161Z,27.6
2018-11-21T04:02:52.894Z,27
2018-11-21T04:03:42.741Z,26.6
2018-11-21T04:04:33.027Z,26.3
2018-11-21T04:05:22.294Z,26.1
2018-11-21T04:06:12.873Z,26.1
2018-11-21T04:07:02.381Z,25.9
2018-11-21T04:07:53.309Z,25.9
2018-11-21T04:08:49.024Z,25.9
2018-11-21T04:09:32.998Z,25.9
2018-11-21T04:10:23.166Z,25.9
2018-11-21T04:11:12.961Z,26
2018-11-21T04:12:03.039Z,26
2018-11-21T04:12:53.948Z,26.1
2018-11-21T04:13:43.259Z,26.3
2018-11-21T04:14:33.663Z,27.1
2018-11-21T04:15:23.043Z,28.6
2018-11-21T04:16:13.651Z,29.8
2018-11-21T04:17:03.493Z,30.6
2018-11-21T04:17:53.973Z,31.2
2018-11-21T04:18:44.001Z,31.7
2018-11-21T04:19:33.441Z,32.1
2018-11-21T04:20:24.401Z,32.6
2018-11-21T04:21:15.220Z,32.9
2018-11-21T04:22:04.901Z,33.2
2018-11-21T04:22:53.720Z,33.5
2018-11-21T04:23:44.818Z,33.8
2018-11-21T04:24:34.882Z,34
2018-11-21T04:25:25.854Z,34.2
2018-11-21T04:26:14.307Z,34.4
2018-11-21T04:27:04.428Z,34.6
2018-11-21T04:27:55.165Z,34.7
2018-11-21T04:28:44.716Z,34.9
2018-11-21T04:29:34.179Z,33.4
2018-11-21T04:30:24.798Z,30.6
2018-11-21T04:31:14.326Z,28.8
2018-11-21T04:32:04.849Z,27.8
2018-11-21T04:32:54.970Z,27.1
2018-11-21T04:33:44.873Z,26.7
2018-11-21T04:34:35.208Z,26.4
2018-11-21T04:35:26.054Z,26.2
2018-11-21T04:36:15.209Z,26.1
2018-11-21T04:37:05.652Z,26
2018-11-21T04:54:21.271Z,33.7
2018-11-21T04:55:11.190Z,33.9
2018-11-21T04:56:01.807Z,34.1
2018-11-21T04:56:50.743Z,34.3
2018-11-21T04:57:40.750Z,34.5
2018-11-21T04:58:32.155Z,34.7
2018-11-21T04:59:22.243Z,34.8
2018-11-21T05:00:10.888Z,33.4
2018-11-21T05:01:00.515Z,30.6
2018-11-21T05:01:52.253Z,28.8
2018-11-21T05:02:42.000Z,27.6
2018-11-21T05:03:31.740Z,27
2018-11-21T05:04:21.633Z,26.6
2018-11-21T05:05:10.848Z,26.3
2018-11-21T05:06:00.767Z,26
2018-11-21T05:06:51.275Z,25.8
2018-11-21T05:07:42.308Z,25.8
2018-11-21T05:08:31.219Z,25.6
2018-11-21T05:09:22.063Z,25.6
2018-11-21T05:10:13.332Z,25.6
2018-11-21T05:11:02.462Z,25.6
2018-11-21T05:11:52.071Z,25.6
2018-11-21T05:12:41.538Z,25.6
2018-11-21T05:13:32.772Z,25.6
2018-11-21T05:14:23.207Z,25.6
2018-11-21T05:15:12.616Z,26.4
2018-11-21T05:16:52.427Z,29.1
2018-11-21T05:17:42.587Z,29.9
2018-11-21T05:18:32.392Z,30.6
2018-11-21T05:19:22.560Z,31.1
2018-11-21T05:20:12.581Z,31.6
2018-11-21T05:21:02.974Z,32
2018-11-21T05:21:52.461Z,32.4
2018-11-21T05:22:42.526Z,32.7
2018-11-21T05:23:32.971Z,33
2018-11-21T05:24:22.547Z,33.3
2018-11-21T05:25:13.031Z,33.5
2018-11-21T05:26:03.669Z,33.8
2018-11-21T05:26:53.539Z,33.9
2018-11-21T05:27:43.333Z,34.1
2018-11-21T05:28:33.090Z,34.3
2018-11-21T05:29:23.058Z,34.5
2018-11-21T05:30:12.624Z,34.7
2018-11-21T05:31:03.023Z,34.1
2018-11-21T05:31:54.011Z,31.3
2018-11-21T05:32:43.413Z,29.2
2018-11-21T05:33:33.595Z,27.9
2018-11-21T05:34:23.426Z,27.2
2018-11-21T05:35:14.651Z,26.7
2018-11-21T05:36:03.860Z,26.3
2018-11-21T05:36:54.438Z,26.1
2018-11-21T05:37:43.503Z,25.9
2018-11-21T05:38:33.820Z,25.8
2018-11-21T05:39:23.483Z,25.8
2018-11-21T05:40:14.095Z,25.8
2018-11-21T05:41:03.543Z,25.7
2018-11-21T05:41:54.588Z,25.7
2018-11-21T05:42:44.848Z,25.8
2018-11-21T05:43:34.475Z,25.8
2018-11-21T05:44:31.323Z,25.8
2018-11-21T05:45:14.443Z,25.8
2018-11-21T05:46:05.118Z,26.1
2018-11-21T05:46:58.292Z,27.3
2018-11-21T05:47:44.355Z,28.8
2018-11-21T05:48:34.402Z,29.6
2018-11-21T05:49:24.544Z,30.4
2018-11-21T05:50:15.383Z,30.9
2018-11-21T05:51:05.047Z,31.5
2018-11-21T05:51:55.687Z,31.9
2018-11-21T05:52:45.982Z,32.3
2018-11-21T05:53:34.274Z,32.6
2018-11-21T05:54:24.100Z,32.9
2018-11-21T05:55:15.762Z,33.3
2018-11-21T05:56:06.097Z,33.6
2018-11-21T05:56:55.020Z,33.8
2018-11-21T05:57:45.929Z,34
2018-11-21T05:58:35.599Z,34.2
2018-11-21T05:59:25.228Z,34.4
2018-11-21T06:00:16.139Z,34.5
2018-11-21T06:01:05.597Z,34.7
2018-11-21T06:01:56.537Z,34.8
2018-11-21T06:02:45.991Z,33.6
2018-11-21T06:03:35.942Z,30.8
2018-11-21T06:04:25.892Z,28.9
2018-11-21T06:06:11.783Z,27.2
2018-11-21T06:06:56.119Z,26.7
2018-11-21T06:07:46.116Z,26.4
2018-11-21T06:08:36.502Z,26.2
2018-11-21T06:09:27.707Z,26.1
2018-11-21T06:10:15.511Z,25.9
2018-11-21T06:11:06.743Z,25.9
2018-11-21T06:11:57.407Z,25.9
2018-11-21T06:12:46.934Z,25.8
2018-11-21T06:13:37.022Z,25.9
2018-11-21T06:14:24.846Z,25.9
2018-11-21T06:15:15.878Z,25.9
2018-11-21T06:16:07.878Z,25.9
2018-11-21T06:16:56.988Z,26
2018-11-21T06:17:54.250Z,26.6
2018-11-21T06:18:35.813Z,28.3
2018-11-21T06:19:28.265Z,29.3
2018-11-21T06:20:17.060Z,30.1
2018-11-21T06:21:07.880Z,30.8
2018-11-21T06:21:56.845Z,31.3
2018-11-21T06:22:46.975Z,31.8
2018-11-21T06:23:37.133Z,32.2
2018-11-21T06:24:27.320Z,32.6
2018-11-21T06:25:17.625Z,32.8
2018-11-21T06:26:08.600Z,33.1
2018-11-21T06:26:57.951Z,33.4
2018-11-21T06:27:46.750Z,33.6
2018-11-21T06:28:38.375Z,33.8
2018-11-21T06:29:26.347Z,34
2018-11-21T06:30:17.000Z,34.2
2018-11-21T06:31:07.966Z,34.3
2018-11-21T06:31:57.762Z,34.5
2018-11-21T06:32:48.952Z,34.6
2018-11-21T06:33:38.152Z,34.8
2018-11-21T06:34:33.988Z,33.9
2018-11-21T06:35:19.033Z,30.9
2018-11-21T06:36:10.175Z,29.1
2018-11-21T06:36:59.709Z,27.9
2018-11-21T06:37:49.529Z,27.2
2018-11-21T06:38:39.505Z,26.8
2018-11-21T06:39:29.609Z,26.4
2018-11-21T06:40:19.072Z,26.2
2018-11-21T06:41:09.708Z,26.1
2018-11-21T06:42:00.077Z,25.9
2018-11-21T06:42:49.233Z,25.9
2018-11-21T06:43:39.885Z,25.9
2018-11-21T06:44:30.219Z,25.8
2018-11-21T06:45:19.694Z,25.9
2018-11-21T06:46:10.052Z,25.9
2018-11-21T06:47:00.339Z,25.9
2018-11-21T06:47:48.838Z,25.9
2018-11-21T06:48:40.032Z,25.9
2018-11-21T06:49:30.279Z,26.4
2018-11-21T06:50:20.319Z,27.9
2018-11-21T06:51:10.842Z,29.2
2018-11-21T06:52:00.139Z,30
2018-11-21T06:52:50.831Z,30.7
2018-11-21T06:53:40.086Z,31.3
2018-11-21T06:54:29.241Z,31.7
2018-11-21T06:55:20.135Z,32.1
2018-11-21T06:56:11.105Z,32.4
2018-11-21T06:57:01.096Z,32.7
2018-11-21T06:57:49.713Z,33
2018-11-21T06:58:40.375Z,33.3
2018-11-21T06:59:30.996Z,33.5
2018-11-21T07:00:21.083Z,33.7
2018-11-21T07:01:11.471Z,33.9
2018-11-21T07:02:00.888Z,34
2018-11-21T07:02:51.207Z,34.1
2018-11-21T07:03:40.780Z,34.3
2018-11-21T07:04:30.788Z,34.4
2018-11-21T07:05:21.437Z,34.6
2018-11-21T07:06:11.425Z,34.6
2018-11-21T07:07:01.475Z,34.1
2018-11-21T07:07:51.553Z,31.6
2018-11-21T07:08:41.047Z,29.4
2018-11-21T07:09:31.145Z,28.1
2018-11-21T07:10:22.077Z,27.3
2018-11-21T07:11:11.238Z,26.8
2018-11-21T07:12:01.560Z,26.4
2018-11-21T07:12:51.567Z,26.2
2018-11-21T07:13:41.415Z,26.1
2018-11-21T07:14:31.168Z,25.9
2018-11-21T07:15:22.366Z,25.9
2018-11-21T07:16:12.444Z,25.9
2018-11-21T07:17:01.951Z,26.7
2018-11-21T07:17:52.484Z,27
2018-11-21T07:18:42.369Z,27.1
2018-11-21T07:19:32.649Z,27.2
2018-11-21T07:20:22.446Z,27.3
2018-11-21T07:21:11.742Z,27.3
2018-11-21T07:22:02.002Z,27.3
2018-11-21T07:22:52.093Z,27.3
2018-11-21T07:23:43.348Z,27.2
2018-11-21T07:24:33.377Z,27.2
2018-11-21T07:25:22.309Z,27.2
2018-11-21T07:26:12.821Z,27.1
2018-11-21T07:27:02.051Z,27.4
2018-11-21T07:27:52.598Z,28.5
2018-11-21T07:28:42.686Z,29.4
2018-11-21T07:29:40.934Z,30.1
2018-11-21T07:30:22.544Z,30.8
2018-11-21T07:31:12.628Z,31.1
2018-11-21T07:32:03.516Z,31.5
2018-11-21T07:33:50.102Z,32.2
2018-11-21T07:34:33.425Z,32.4
2018-11-21T07:35:26.201Z,32.7
2018-11-21T07:36:13.251Z,33
2018-11-21T07:37:03.003Z,33.1
2018-11-21T07:37:53.661Z,32.2
2018-11-21T07:38:43.731Z,30.9
2018-11-21T07:39:33.205Z,29.4
2018-11-21T07:40:22.439Z,28.5
2018-11-21T07:41:14.158Z,27.8
2018-11-21T07:42:03.420Z,27.1
2018-11-21T07:42:53.438Z,26.3
2018-11-21T07:43:43.860Z,25.6
2018-11-21T07:44:33.845Z,24.9
2018-11-21T07:45:25.232Z,24.1
2018-11-21T07:46:14.205Z,23.4
2018-11-21T07:47:04.317Z,22.8
2018-11-21T07:47:54.377Z,22.8
2018-11-21T07:48:44.425Z,23.1
2018-11-21T07:49:34.222Z,24.8
2018-11-21T07:50:24.263Z,26.3
2018-11-21T07:51:13.740Z,27.4
2018-11-21T07:52:04.705Z,28.4
2018-11-21T07:52:54.472Z,29.3
2018-11-21T07:53:44.991Z,29.9
2018-11-21T07:54:34.534Z,30.5
2018-11-21T07:55:25.187Z,31
2018-11-21T07:56:14.057Z,31.4
2018-11-21T07:57:04.981Z,31.9
2018-11-21T07:57:54.741Z,32.3
2018-11-21T07:58:44.790Z,32.7
2018-11-21T07:59:35.115Z,33
2018-11-21T08:00:24.743Z,33.3
2018-11-21T08:01:14.988Z,33.6
2018-11-21T08:02:04.834Z,33.8
2018-11-21T08:02:54.845Z,34.1
2018-11-21T08:03:44.325Z,34.3
2018-11-21T08:04:35.190Z,34.4
2018-11-21T08:05:25.003Z,34.6
2018-11-21T08:06:14.758Z,34.8
2018-11-21T08:07:05.393Z,34.9
2018-11-21T08:07:55.743Z,34.1
2018-11-21T08:08:45.255Z,31.2
2018-11-21T08:09:35.560Z,29.1
2018-11-21T08:11:16.245Z,27.1
2018-11-21T08:12:05.457Z,26.6
2018-11-21T08:12:55.657Z,26.3
2018-11-21T08:13:45.920Z,26
2018-11-21T08:14:35.455Z,25.8
2018-11-21T08:15:26.762Z,25.8
2018-11-21T08:16:15.240Z,25.7
2018-11-21T08:17:04.773Z,25.7
2018-11-21T08:17:55.646Z,25.6
2018-11-21T08:18:45.375Z,25.6
2018-11-21T08:19:36.364Z,25.6
2018-11-21T08:20:26.142Z,25.7
2018-11-21T08:21:15.884Z,26
2018-11-21T08:22:06.492Z,26.9
2018-11-21T08:22:56.249Z,28.6
2018-11-21T08:23:45.764Z,29.6
2018-11-21T08:24:35.611Z,30.4
2018-11-21T08:25:26.139Z,31.1
2018-11-21T08:26:16.539Z,31.6
2018-11-21T08:27:06.622Z,32.1
2018-11-21T08:27:55.559Z,32.5
2018-11-21T08:28:47.238Z,32.8
2018-11-21T08:29:36.806Z,33.2
2018-11-21T08:30:26.861Z,33.4
2018-11-21T08:31:17.149Z,33.8
2018-11-21T08:32:07.499Z,33.9
2018-11-21T08:32:56.419Z,34.2
2018-11-21T08:33:47.386Z,34.3
2018-11-21T08:34:36.496Z,34.5
2018-11-21T08:35:27.631Z,34.7
2018-11-21T08:36:16.608Z,34.8
2018-11-21T08:37:07.203Z,34.7
2018-11-21T08:37:57.533Z,32.4
2018-11-21T08:38:47.180Z,29.8
2018-11-21T08:39:37.203Z,28.3
2018-11-21T08:40:27.218Z,27.4
2018-11-21T08:41:17.804Z,26.8
2018-11-21T08:42:07.633Z,26.4
2018-11-21T09:08:47.214Z,33.8
2018-11-21T09:09:37.345Z,33.9
2018-11-21T09:10:27.314Z,34.1
2018-11-21T09:11:17.134Z,34.3
2018-11-21T09:12:17.493Z,34.4
2018-11-21T09:12:57.235Z,34.5
2018-11-21T09:13:47.293Z,34.6
2018-11-21T09:14:37.081Z,34.7
2018-11-21T09:15:26.563Z,34.8
2018-11-21T09:16:17.508Z,33.4
2018-11-21T09:17:07.802Z,30.6
2018-11-21T09:17:57.538Z,28.7
2018-11-21T09:18:48.438Z,27.6
2018-11-21T09:19:37.726Z,26.9
2018-11-21T09:20:28.312Z,26.5
2018-11-21T09:21:17.833Z,26.2
2018-11-21T09:22:07.838Z,26
2018-11-21T09:22:58.248Z,25.9
2018-11-21T09:23:47.966Z,25.8
2018-11-21T09:24:38.600Z,25.8
2018-11-21T09:25:27.275Z,26.2
2018-11-21T09:26:18.127Z,26.8
2018-11-21T09:27:08.787Z,26.9
2018-11-21T09:27:57.064Z,27.1
2018-11-21T09:28:49.175Z,27.1
2018-11-21T09:29:38.965Z,27.2
2018-11-21T09:30:29.059Z,27.2
2018-11-21T09:31:19.037Z,27.1
2018-11-21T09:32:06.874Z,27.1
2018-11-21T09:32:57.815Z,27.1
2018-11-21T09:33:48.982Z,27.1
2018-11-21T09:34:39.002Z,26.9
2018-11-21T09:35:28.544Z,28
2018-11-21T09:36:18.329Z,29.1
2018-11-21T09:37:09.168Z,29.8
2018-11-21T09:37:59.487Z,30.4
2018-11-21T09:38:49.274Z,30.9
2018-11-21T09:39:39.244Z,31.3
2018-11-21T09:40:28.312Z,31.6
2018-11-21T09:41:18.959Z,31.9
2018-11-21T09:42:09.252Z,32.3
2018-11-21T09:42:59.026Z,32.5
2018-11-21T09:43:49.888Z,32.8
2018-11-21T09:44:39.406Z,32.9
2018-11-21T09:45:29.756Z,33.1
2018-11-21T09:46:24.856Z,33.3
2018-11-21T09:47:09.617Z,33.5
2018-11-21T09:47:59.976Z,33.6
2018-11-21T09:48:49.702Z,33.8
2018-11-21T09:49:39.573Z,33.9
2018-11-21T09:50:31.009Z,34
2018-11-21T09:51:19.991Z,34.1
2018-11-21T09:52:10.263Z,34.2
2018-11-21T09:53:00.573Z,34.3
2018-11-21T09:53:48.198Z,34.4
2018-11-21T09:54:39.863Z,34.4
2018-11-21T09:55:29.701Z,34.5
2018-11-21T09:56:20.018Z,34.6
2018-11-21T09:57:09.878Z,34.6
2018-11-21T09:58:00.423Z,34.2
2018-11-21T09:58:49.675Z,31.5
2018-11-21T09:59:40.088Z,29.2
2018-11-21T10:00:30.255Z,27.9
2018-11-21T10:01:20.395Z,27.1
2018-11-21T10:02:10.438Z,26.6
2018-11-21T10:03:00.495Z,26.3
2018-11-21T10:03:50.795Z,26
2018-11-21T10:04:40.899Z,25.8
2018-11-21T10:05:31.158Z,25.7
2018-11-21T10:06:20.448Z,25.7
2018-11-21T10:07:10.497Z,25.6
2018-11-21T10:08:00.542Z,26.1
2018-11-21T10:08:50.677Z,26.6
2018-11-21T10:09:40.913Z,26.9
2018-11-21T10:10:31.552Z,27
2018-11-21T10:11:21.095Z,27.1
2018-11-21T10:12:11.117Z,27.1
2018-11-21T10:13:01.477Z,27.1
2018-11-21T10:13:50.990Z,27.1
2018-11-21T10:14:40.835Z,27.1
2018-11-21T10:15:31.737Z,27.1
2018-11-21T10:16:21.700Z,26.9
2018-11-21T10:17:11.209Z,27.4
2018-11-21T10:18:01.767Z,28.6
2018-11-21T10:18:51.336Z,29.4
2018-11-21T10:19:41.709Z,30.1
2018-11-21T10:20:32.326Z,30.6
2018-11-21T10:21:22.091Z,31
2018-11-21T10:22:11.822Z,31.4
2018-11-21T10:23:01.023Z,31.7
2018-11-21T10:23:52.479Z,32
2018-11-21T10:24:42.251Z,32.3
2018-11-21T10:25:32.029Z,32.4
2018-11-21T10:26:22.363Z,32.6
2018-11-21T10:27:11.878Z,32.9
2018-11-21T10:28:02.484Z,33
2018-11-21T10:28:51.991Z,33.1
2018-11-21T10:29:42.828Z,33.3
2018-11-21T10:30:32.880Z,33.4
2018-11-21T10:31:21.894Z,33.5
2018-11-21T10:32:12.740Z,33.6
2018-11-21T10:33:02.761Z,33.7
2018-11-21T10:33:52.589Z,33.8
2018-11-21T10:34:42.325Z,33.9
2018-11-21T10:35:37.901Z,33.9
2018-11-21T10:36:22.418Z,34
2018-11-21T10:37:12.763Z,34.1
2018-11-21T10:38:02.680Z,34.1
2018-11-21T10:38:52.958Z,34.2
2018-11-21T10:39:43.322Z,34.3
2018-11-21T10:40:33.662Z,34.3
2018-11-21T10:41:24.125Z,34.4
2018-11-21T10:42:13.743Z,34.3
2018-11-21T10:43:03.758Z,33.1
2018-11-21T10:43:53.235Z,31.6
2018-11-21T10:44:43.314Z,30.1
2018-11-21T10:45:34.147Z,29
2018-11-21T10:46:23.127Z,27.9
2018-11-21T10:47:13.452Z,26.8
2018-11-21T10:48:03.252Z,25.9
2018-11-21T10:48:53.315Z,25.1
2018-11-21T10:49:44.199Z,25.3
2018-11-21T10:50:34.348Z,25.8
2018-11-21T10:51:24.100Z,27.3
2018-11-21T10:52:14.107Z,28.5
2018-11-21T10:53:04.162Z,29.4
2018-11-21T10:53:54.000Z,30.2
2018-11-21T10:54:44.268Z,30.8
2018-11-21T10:55:34.259Z,31.3
2018-11-21T10:56:23.812Z,31.8
2018-11-21T10:57:14.481Z,32.2
2018-11-21T10:58:04.574Z,32.6
2018-11-21T10:58:54.276Z,32.9
2018-11-21T10:59:44.081Z,33.1
2018-11-21T11:00:34.776Z,33.4
2018-11-21T11:01:23.981Z,33.7
2018-11-21T11:02:14.806Z,33.9
2018-11-21T11:03:05.433Z,34.1
2018-11-21T11:03:56.441Z,34.3
2018-11-21T11:04:45.257Z,34.4
2018-11-21T11:05:34.235Z,34.6
2018-11-21T11:06:24.813Z,34.7
2018-11-21T11:07:15.168Z,34.6
2018-11-21T11:08:05.201Z,32.2
2018-11-21T11:08:55.253Z,29.5
2018-11-21T11:09:45.408Z,28
2018-11-21T11:10:35.982Z,27.1
2018-11-21T11:11:25.158Z,26.5
2018-11-21T11:12:15.253Z,26.1
2018-11-21T11:13:04.718Z,25.8
2018-11-21T11:13:55.909Z,25.7
2018-11-21T11:14:45.900Z,25.6
2018-11-21T11:15:36.255Z,25.5
2018-11-21T11:16:26.055Z,25.5
2018-11-21T11:17:16.402Z,25.4
2018-11-21T11:18:07.901Z,26.3
2018-11-21T11:18:56.501Z,26.7
2018-11-21T11:19:46.269Z,26.9
2018-11-21T11:20:36.330Z,26.9
2018-11-21T11:21:26.680Z,27
2018-11-21T11:22:16.230Z,27.1
2018-11-21T11:23:06.235Z,27
2018-11-21T11:23:56.285Z,27
2018-11-21T11:24:46.623Z,27
2018-11-21T11:25:36.410Z,26.9
2018-11-21T11:26:27.645Z,27.7
2018-11-21T11:27:16.570Z,28.9
2018-11-21T11:28:06.952Z,29.7
2018-11-21T11:28:56.924Z,30.3
2018-11-21T11:29:44.644Z,30.9
2018-11-21T11:30:35.847Z,31.3
2018-11-21T11:31:25.757Z,31.7
2018-11-21T11:32:17.194Z,32
2018-11-21T11:33:05.222Z,32.3
2018-11-21T11:33:54.839Z,32.6
2018-11-21T11:34:45.074Z,32.9
2018-11-21T11:35:35.934Z,33.1
2018-11-21T11:36:26.050Z,33.3
2018-11-21T11:37:15.331Z,33.5
2018-11-21T11:38:05.594Z,33.7
2018-11-21T11:38:55.713Z,33.8
2018-11-21T11:39:46.927Z,34
2018-11-21T11:40:36.326Z,34.1
2018-11-21T11:41:26.816Z,34.2
2018-11-21T11:42:16.289Z,34.3
2018-11-21T11:43:06.656Z,34.4
2018-11-21T11:43:56.003Z,34.5
2018-11-21T11:44:46.258Z,34.6
2018-11-21T11:45:36.709Z,34.7
2018-11-21T11:46:26.960Z,33.4
2018-11-21T11:47:17.557Z,30.4
2018-11-21T11:48:06.395Z,28.5
2018-11-21T11:48:56.473Z,27.4
2018-11-21T11:49:46.652Z,26.8
2018-11-21T11:50:36.767Z,26.3
2018-11-21T11:51:26.193Z,26
2018-11-21T11:52:16.714Z,25.8
2018-11-21T11:53:07.075Z,25.6
2018-11-21T11:53:56.292Z,25.6
2018-11-21T11:54:46.413Z,25.5
2018-11-21T11:55:36.919Z,25.5
2018-11-21T11:56:27.705Z,26.2
2018-11-21T11:57:18.057Z,26.6
2018-11-21T11:58:08.302Z,26.9
2018-11-21T11:58:57.026Z,27
2018-11-21T11:59:47.525Z,27.1
2018-11-21T12:00:37.353Z,27.1
2018-11-21T12:01:28.132Z,27.1
2018-11-21T12:02:19.328Z,27.1
2018-11-21T12:03:07.645Z,27.1
2018-11-21T12:04:04.320Z,27
2018-11-21T12:04:48.112Z,27.4
2018-11-21T12:05:36.772Z,28.4
2018-11-21T12:06:28.182Z,29.3
2018-11-21T12:07:17.829Z,30
2018-11-21T12:08:09.459Z,30.6
2018-11-21T12:08:58.671Z,31.1
2018-11-21T12:09:48.572Z,31.4
2018-11-21T12:10:37.963Z,31.7
2018-11-21T12:11:28.770Z,32
2018-11-21T12:12:19.491Z,32.3
2018-11-21T12:13:08.379Z,32.6
2018-11-21T12:14:00.126Z,32.8